sensor_id;sensor_type;location;lat;lon;timestamp;temperature;humidity
76120;DHT22;64852;48.092;-1.640;2023-07-31T00:01:39;18.70;99.90
76120;DHT22;64852;48.092;-1.640;2023-07-31T00:04:05;18.70;99.90
76120;DHT22;64852;48.092;-1.640;2023-07-31T00:06:30;18.70;99.90
76120;DHT22;64852;48.092;-1.640;2023-07-31T00:08:55;18.70;99.90
76120;DHT22;64852;48.092;-1.640;2023-07-31T00:11:21;18.70;99.90
76120;DHT22;64852;48.092;-1.640;2023-07-31T00:13:47;18.70;99.90
76120;DHT22;64852;48.092;-1.640;2023-07-31T00:16:12;18.70;99.90
76120;DHT22;64852;48.092;-1.640;2023-07-31T00:18:38;18.70;99.90
76120;DHT22;64852;48.092;-1.640;2023-07-31T00:21:03;18.80;99.90
76120;DHT22;64852;48.092;-1.640;2023-07-31T00:23:28;18.90;99.90
76120;DHT22;64852;48.092;-1.640;2023-07-31T00:25:54;18.70;99.90
76120;DHT22;64852;48.092;-1.640;2023-07-31T00:28:19;18.70;99.90
76120;DHT22;64852;48.092;-1.640;2023-07-31T00:30:45;18.60;99.90
76120;DHT22;64852;48.092;-1.640;2023-07-31T00:33:10;18.60;99.90
76120;DHT22;64852;48.092;-1.640;2023-07-31T00:35:36;18.60;99.90
76120;DHT22;64852;48.092;-1.640;2023-07-31T00:38:01;18.60;99.90
76120;DHT22;64852;48.092;-1.640;2023-07-31T00:40:27;18.70;99.90
76120;DHT22;64852;48.092;-1.640;2023-07-31T00:42:53;18.70;99.90
76120;DHT22;64852;48.092;-1.640;2023-07-31T00:45:18;18.70;99.90
76120;DHT22;64852;48.092;-1.640;2023-07-31T00:47:44;18.70;99.90
76120;DHT22;64852;48.092;-1.640;2023-07-31T00:50:09;18.70;99.90
76120;DHT22;64852;48.092;-1.640;2023-07-31T00:52:35;18.70;99.90
76120;DHT22;64852;48.092;-1.640;2023-07-31T00:55:01;18.70;99.90
76120;DHT22;64852;48.092;-1.640;2023-07-31T00:57:26;18.70;99.90
76120;DHT22;64852;48.092;-1.640;2023-07-31T00:59:52;18.70;99.90
76120;DHT22;64852;48.092;-1.640;2023-07-31T01:02:17;18.60;99.90
76120;DHT22;64852;48.092;-1.640;2023-07-31T01:04:43;18.60;99.90
76120;DHT22;64852;48.092;-1.640;2023-07-31T01:07:21;18.50;99.90
76120;DHT22;64852;48.092;-1.640;2023-07-31T01:09:49;18.60;99.90
76120;DHT22;64852;48.092;-1.640;2023-07-31T01:12:17;18.60;99.90
76120;DHT22;64852;48.092;-1.640;2023-07-31T01:15:18;18.60;99.90
76120;DHT22;64852;48.092;-1.640;2023-07-31T01:17:37;18.60;99.90
76120;DHT22;64852;48.092;-1.640;2023-07-31T01:20:03;18.60;99.90
76120;DHT22;64852;48.092;-1.640;2023-07-31T01:25:16;18.40;99.90
76120;DHT22;64852;48.092;-1.640;2023-07-31T01:27:59;18.50;99.90
76120;DHT22;64852;48.092;-1.640;2023-07-31T01:30:27;18.50;99.90
76120;DHT22;64852;48.092;-1.640;2023-07-31T01:32:54;18.50;99.90
76120;DHT22;64852;48.092;-1.640;2023-07-31T01:35:21;18.50;99.90
76120;DHT22;64852;48.092;-1.640;2023-07-31T01:37:46;18.50;99.90
76120;DHT22;64852;48.092;-1.640;2023-07-31T01:40:12;18.50;99.90
76120;DHT22;64852;48.092;-1.640;2023-07-31T01:42:37;18.60;99.90
76120;DHT22;64852;48.092;-1.640;2023-07-31T01:45:03;18.50;99.90
76120;DHT22;64852;48.092;-1.640;2023-07-31T01:47:29;18.60;99.90
76120;DHT22;64852;48.092;-1.640;2023-07-31T01:49:54;18.50;99.90
76120;DHT22;64852;48.092;-1.640;2023-07-31T01:52:20;18.50;99.90
76120;DHT22;64852;48.092;-1.640;2023-07-31T01:54:45;18.50;99.90
76120;DHT22;64852;48.092;-1.640;2023-07-31T01:57:10;18.50;99.90
76120;DHT22;64852;48.092;-1.640;2023-07-31T01:59:36;18.50;99.90
76120;DHT22;64852;48.092;-1.640;2023-07-31T02:02:01;18.50;99.90
76120;DHT22;64852;48.092;-1.640;2023-07-31T02:04:27;18.60;99.90
76120;DHT22;64852;48.092;-1.640;2023-07-31T02:06:52;18.50;99.90
76120;DHT22;64852;48.092;-1.640;2023-07-31T02:09:18;18.50;99.90
76120;DHT22;64852;48.092;-1.640;2023-07-31T02:11:43;18.50;99.90
76120;DHT22;64852;48.092;-1.640;2023-07-31T02:14:09;18.50;99.90
76120;DHT22;64852;48.092;-1.640;2023-07-31T02:16:34;18.50;99.90
76120;DHT22;64852;48.092;-1.640;2023-07-31T02:19:00;18.40;99.90
76120;DHT22;64852;48.092;-1.640;2023-07-31T02:21:25;18.40;99.90
76120;DHT22;64852;48.092;-1.640;2023-07-31T02:23:51;18.30;99.90
76120;DHT22;64852;48.092;-1.640;2023-07-31T02:26:16;18.30;99.90
76120;DHT22;64852;48.092;-1.640;2023-07-31T02:28:42;18.30;99.90
76120;DHT22;64852;48.092;-1.640;2023-07-31T02:31:08;18.30;99.90
76120;DHT22;64852;48.092;-1.640;2023-07-31T02:33:34;18.30;99.90
76120;DHT22;64852;48.092;-1.640;2023-07-31T02:35:59;18.30;99.90
76120;DHT22;64852;48.092;-1.640;2023-07-31T02:38:25;18.20;99.90
76120;DHT22;64852;48.092;-1.640;2023-07-31T02:40:50;18.30;99.90
76120;DHT22;64852;48.092;-1.640;2023-07-31T02:43:16;18.30;99.90
76120;DHT22;64852;48.092;-1.640;2023-07-31T02:45:41;18.30;99.90
76120;DHT22;64852;48.092;-1.640;2023-07-31T02:48:07;18.30;99.90
76120;DHT22;64852;48.092;-1.640;2023-07-31T02:50:32;18.30;99.90
76120;DHT22;64852;48.092;-1.640;2023-07-31T02:52:58;18.30;99.90
76120;DHT22;64852;48.092;-1.640;2023-07-31T02:55:24;18.40;99.90
76120;DHT22;64852;48.092;-1.640;2023-07-31T02:57:49;18.40;99.90
76120;DHT22;64852;48.092;-1.640;2023-07-31T03:00:15;18.50;99.90
76120;DHT22;64852;48.092;-1.640;2023-07-31T03:02:40;18.50;99.90
76120;DHT22;64852;48.092;-1.640;2023-07-31T03:05:06;18.40;99.90
76120;DHT22;64852;48.092;-1.640;2023-07-31T03:07:31;18.40;99.90
76120;DHT22;64852;48.092;-1.640;2023-07-31T03:09:57;18.40;99.90
76120;DHT22;64852;48.092;-1.640;2023-07-31T03:12:22;18.40;99.90
76120;DHT22;64852;48.092;-1.640;2023-07-31T03:14:48;18.40;99.90
76120;DHT22;64852;48.092;-1.640;2023-07-31T03:17:14;18.40;99.90
76120;DHT22;64852;48.092;-1.640;2023-07-31T03:19:40;18.40;99.90
76120;DHT22;64852;48.092;-1.640;2023-07-31T03:22:05;18.40;99.90
76120;DHT22;64852;48.092;-1.640;2023-07-31T03:24:31;18.40;99.90
76120;DHT22;64852;48.092;-1.640;2023-07-31T03:26:56;18.40;99.90
76120;DHT22;64852;48.092;-1.640;2023-07-31T03:29:22;18.40;99.90
76120;DHT22;64852;48.092;-1.640;2023-07-31T03:31:47;18.40;99.90
76120;DHT22;64852;48.092;-1.640;2023-07-31T03:34:13;18.40;99.90
76120;DHT22;64852;48.092;-1.640;2023-07-31T03:36:38;18.40;99.90
76120;DHT22;64852;48.092;-1.640;2023-07-31T03:39:04;18.40;99.90
76120;DHT22;64852;48.092;-1.640;2023-07-31T03:41:29;18.50;99.90
76120;DHT22;64852;48.092;-1.640;2023-07-31T03:43:55;18.50;99.90
76120;DHT22;64852;48.092;-1.640;2023-07-31T03:46:24;18.50;99.90
76120;DHT22;64852;48.092;-1.640;2023-07-31T03:48:49;18.50;99.90
76120;DHT22;64852;48.092;-1.640;2023-07-31T03:51:15;18.40;99.90
76120;DHT22;64852;48.092;-1.640;2023-07-31T03:53:40;18.40;99.90
76120;DHT22;64852;48.092;-1.640;2023-07-31T03:56:06;18.40;99.90
76120;DHT22;64852;48.092;-1.640;2023-07-31T03:58:31;17.90;99.90
76120;DHT22;64852;48.092;-1.640;2023-07-31T04:00:57;18.40;99.90
76120;DHT22;64852;48.092;-1.640;2023-07-31T04:03:22;18.30;99.90
76120;DHT22;64852;48.092;-1.640;2023-07-31T04:05:48;18.30;99.90
76120;DHT22;64852;48.092;-1.640;2023-07-31T04:08:13;18.30;99.90
76120;DHT22;64852;48.092;-1.640;2023-07-31T04:10:39;18.40;99.90
76120;DHT22;64852;48.092;-1.640;2023-07-31T04:13:04;18.40;99.90
76120;DHT22;64852;48.092;-1.640;2023-07-31T04:15:30;18.40;99.90
76120;DHT22;64852;48.092;-1.640;2023-07-31T04:17:55;18.40;99.90
76120;DHT22;64852;48.092;-1.640;2023-07-31T04:20:21;18.40;99.90
76120;DHT22;64852;48.092;-1.640;2023-07-31T04:22:46;18.40;99.90
76120;DHT22;64852;48.092;-1.640;2023-07-31T04:25:12;18.50;99.90
76120;DHT22;64852;48.092;-1.640;2023-07-31T04:27:37;18.50;99.90
76120;DHT22;64852;48.092;-1.640;2023-07-31T04:30:03;18.30;99.90
76120;DHT22;64852;48.092;-1.640;2023-07-31T04:32:29;18.40;99.90
76120;DHT22;64852;48.092;-1.640;2023-07-31T04:34:55;18.50;99.90
76120;DHT22;64852;48.092;-1.640;2023-07-31T04:37:20;18.50;99.90
76120;DHT22;64852;48.092;-1.640;2023-07-31T04:39:46;18.50;99.90
76120;DHT22;64852;48.092;-1.640;2023-07-31T04:42:11;18.50;99.90
76120;DHT22;64852;48.092;-1.640;2023-07-31T04:44:37;18.40;99.90
76120;DHT22;64852;48.092;-1.640;2023-07-31T04:47:02;18.50;99.90
76120;DHT22;64852;48.092;-1.640;2023-07-31T04:49:28;18.50;99.90
76120;DHT22;64852;48.092;-1.640;2023-07-31T04:51:53;18.50;99.90
76120;DHT22;64852;48.092;-1.640;2023-07-31T04:54:19;18.50;99.90
76120;DHT22;64852;48.092;-1.640;2023-07-31T04:56:44;18.60;99.90
76120;DHT22;64852;48.092;-1.640;2023-07-31T04:59:10;18.60;99.90
76120;DHT22;64852;48.092;-1.640;2023-07-31T05:01:35;18.60;99.90
76120;DHT22;64852;48.092;-1.640;2023-07-31T05:04:01;18.60;99.90
76120;DHT22;64852;48.092;-1.640;2023-07-31T05:06:26;18.50;99.90
76120;DHT22;64852;48.092;-1.640;2023-07-31T05:08:52;18.60;99.90
76120;DHT22;64852;48.092;-1.640;2023-07-31T05:11:17;18.50;99.90
76120;DHT22;64852;48.092;-1.640;2023-07-31T05:13:43;18.60;99.90
76120;DHT22;64852;48.092;-1.640;2023-07-31T05:16:08;18.50;99.90
76120;DHT22;64852;48.092;-1.640;2023-07-31T05:18:34;18.60;99.90
76120;DHT22;64852;48.092;-1.640;2023-07-31T05:20:59;18.50;99.90
76120;DHT22;64852;48.092;-1.640;2023-07-31T05:23:25;18.50;99.90
76120;DHT22;64852;48.092;-1.640;2023-07-31T05:25:50;18.50;99.90
76120;DHT22;64852;48.092;-1.640;2023-07-31T05:28:16;18.60;99.90
76120;DHT22;64852;48.092;-1.640;2023-07-31T05:30:41;18.60;99.90
76120;DHT22;64852;48.092;-1.640;2023-07-31T05:33:07;18.60;99.90
76120;DHT22;64852;48.092;-1.640;2023-07-31T05:35:32;18.70;99.90
76120;DHT22;64852;48.092;-1.640;2023-07-31T05:37:58;18.70;99.90
76120;DHT22;64852;48.092;-1.640;2023-07-31T05:40:23;18.70;99.90
76120;DHT22;64852;48.092;-1.640;2023-07-31T05:42:49;18.70;99.90
76120;DHT22;64852;48.092;-1.640;2023-07-31T05:45:14;18.70;99.90
76120;DHT22;64852;48.092;-1.640;2023-07-31T05:47:40;18.70;99.90
76120;DHT22;64852;48.092;-1.640;2023-07-31T05:50:05;18.80;99.90
76120;DHT22;64852;48.092;-1.640;2023-07-31T05:52:31;18.80;99.90
76120;DHT22;64852;48.092;-1.640;2023-07-31T05:54:56;18.80;99.90
76120;DHT22;64852;48.092;-1.640;2023-07-31T05:57:22;18.80;99.90
76120;DHT22;64852;48.092;-1.640;2023-07-31T05:59:48;18.80;99.90
76120;DHT22;64852;48.092;-1.640;2023-07-31T06:02:13;18.80;99.90
76120;DHT22;64852;48.092;-1.640;2023-07-31T06:04:39;18.80;99.90
76120;DHT22;64852;48.092;-1.640;2023-07-31T06:07:04;18.80;99.90
76120;DHT22;64852;48.092;-1.640;2023-07-31T06:09:30;18.80;99.90
76120;DHT22;64852;48.092;-1.640;2023-07-31T06:11:56;18.90;99.90
76120;DHT22;64852;48.092;-1.640;2023-07-31T06:14:21;18.90;99.90
76120;DHT22;64852;48.092;-1.640;2023-07-31T06:16:47;18.90;99.90
76120;DHT22;64852;48.092;-1.640;2023-07-31T06:19:12;19.00;99.90
76120;DHT22;64852;48.092;-1.640;2023-07-31T06:21:38;19.00;99.90
76120;DHT22;64852;48.092;-1.640;2023-07-31T06:24:04;19.00;99.90
76120;DHT22;64852;48.092;-1.640;2023-07-31T06:26:30;19.00;99.90
76120;DHT22;64852;48.092;-1.640;2023-07-31T06:28:55;19.00;99.90
76120;DHT22;64852;48.092;-1.640;2023-07-31T06:31:21;18.90;99.90
76120;DHT22;64852;48.092;-1.640;2023-07-31T06:33:48;18.90;99.90
76120;DHT22;64852;48.092;-1.640;2023-07-31T06:36:14;19.00;99.90
76120;DHT22;64852;48.092;-1.640;2023-07-31T06:38:39;18.90;99.90
76120;DHT22;64852;48.092;-1.640;2023-07-31T06:41:05;19.00;99.90
76120;DHT22;64852;48.092;-1.640;2023-07-31T06:43:30;19.10;99.90
76120;DHT22;64852;48.092;-1.640;2023-07-31T06:45:56;19.10;99.90
76120;DHT22;64852;48.092;-1.640;2023-07-31T06:48:21;19.20;99.90
76120;DHT22;64852;48.092;-1.640;2023-07-31T06:50:47;19.20;99.90
76120;DHT22;64852;48.092;-1.640;2023-07-31T06:53:12;19.20;99.90
76120;DHT22;64852;48.092;-1.640;2023-07-31T06:55:38;19.20;99.90
76120;DHT22;64852;48.092;-1.640;2023-07-31T06:58:03;19.20;99.90
76120;DHT22;64852;48.092;-1.640;2023-07-31T07:00:29;19.20;99.90
76120;DHT22;64852;48.092;-1.640;2023-07-31T07:02:55;19.20;99.90
76120;DHT22;64852;48.092;-1.640;2023-07-31T07:05:20;19.20;99.90
76120;DHT22;64852;48.092;-1.640;2023-07-31T07:07:46;19.20;99.90
76120;DHT22;64852;48.092;-1.640;2023-07-31T07:10:11;19.30;99.90
76120;DHT22;64852;48.092;-1.640;2023-07-31T07:12:37;19.30;99.90
76120;DHT22;64852;48.092;-1.640;2023-07-31T07:15:02;19.30;99.90
76120;DHT22;64852;48.092;-1.640;2023-07-31T07:17:29;19.40;99.90
76120;DHT22;64852;48.092;-1.640;2023-07-31T07:19:58;19.30;99.90
76120;DHT22;64852;48.092;-1.640;2023-07-31T07:22:24;19.20;99.90
76120;DHT22;64852;48.092;-1.640;2023-07-31T07:24:49;19.20;99.90
76120;DHT22;64852;48.092;-1.640;2023-07-31T07:27:15;19.20;99.90
76120;DHT22;64852;48.092;-1.640;2023-07-31T07:29:40;19.20;99.90
76120;DHT22;64852;48.092;-1.640;2023-07-31T07:32:06;19.30;99.90
76120;DHT22;64852;48.092;-1.640;2023-07-31T07:34:31;19.20;99.90
76120;DHT22;64852;48.092;-1.640;2023-07-31T07:36:57;19.60;99.90
76120;DHT22;64852;48.092;-1.640;2023-07-31T07:39:22;19.30;99.90
76120;DHT22;64852;48.092;-1.640;2023-07-31T07:41:48;19.30;99.90
76120;DHT22;64852;48.092;-1.640;2023-07-31T07:44:13;19.30;99.90
76120;DHT22;64852;48.092;-1.640;2023-07-31T07:46:39;19.40;99.90
76120;DHT22;64852;48.092;-1.640;2023-07-31T07:49:05;19.40;99.90
76120;DHT22;64852;48.092;-1.640;2023-07-31T07:51:31;19.50;99.90
76120;DHT22;64852;48.092;-1.640;2023-07-31T07:53:59;19.50;99.90
76120;DHT22;64852;48.092;-1.640;2023-07-31T07:56:25;19.50;99.90
76120;DHT22;64852;48.092;-1.640;2023-07-31T07:58:51;19.50;99.90
76120;DHT22;64852;48.092;-1.640;2023-07-31T08:01:16;19.50;99.90
76120;DHT22;64852;48.092;-1.640;2023-07-31T08:03:42;19.50;99.90
76120;DHT22;64852;48.092;-1.640;2023-07-31T08:06:08;19.50;99.90
76120;DHT22;64852;48.092;-1.640;2023-07-31T08:08:37;19.60;99.90
76120;DHT22;64852;48.092;-1.640;2023-07-31T08:11:02;19.70;99.90
76120;DHT22;64852;48.092;-1.640;2023-07-31T08:13:28;19.60;99.90
76120;DHT22;64852;48.092;-1.640;2023-07-31T08:15:53;19.70;99.90
76120;DHT22;64852;48.092;-1.640;2023-07-31T08:18:19;19.70;99.90
76120;DHT22;64852;48.092;-1.640;2023-07-31T08:20:45;19.80;99.90
76120;DHT22;64852;48.092;-1.640;2023-07-31T08:23:10;19.70;99.90
76120;DHT22;64852;48.092;-1.640;2023-07-31T08:25:36;19.80;99.90
76120;DHT22;64852;48.092;-1.640;2023-07-31T08:28:02;19.70;99.90
76120;DHT22;64852;48.092;-1.640;2023-07-31T08:30:27;19.80;99.90
76120;DHT22;64852;48.092;-1.640;2023-07-31T08:32:53;19.80;99.90
76120;DHT22;64852;48.092;-1.640;2023-07-31T08:35:18;19.70;99.90
76120;DHT22;64852;48.092;-1.640;2023-07-31T08:37:44;19.80;99.90
76120;DHT22;64852;48.092;-1.640;2023-07-31T08:40:10;19.80;99.90
76120;DHT22;64852;48.092;-1.640;2023-07-31T08:42:43;19.80;99.90
76120;DHT22;64852;48.092;-1.640;2023-07-31T08:45:08;19.90;99.90
76120;DHT22;64852;48.092;-1.640;2023-07-31T08:47:34;19.90;99.90
76120;DHT22;64852;48.092;-1.640;2023-07-31T08:50:00;19.80;99.90
76120;DHT22;64852;48.092;-1.640;2023-07-31T08:52:27;19.90;99.90
76120;DHT22;64852;48.092;-1.640;2023-07-31T08:54:52;19.90;99.90
76120;DHT22;64852;48.092;-1.640;2023-07-31T08:57:18;19.80;99.90
76120;DHT22;64852;48.092;-1.640;2023-07-31T08:59:43;19.80;99.90
76120;DHT22;64852;48.092;-1.640;2023-07-31T09:02:09;19.80;99.90
76120;DHT22;64852;48.092;-1.640;2023-07-31T09:04:35;19.80;99.90
76120;DHT22;64852;48.092;-1.640;2023-07-31T09:07:01;19.90;99.90
76120;DHT22;64852;48.092;-1.640;2023-07-31T09:09:28;19.90;99.90
76120;DHT22;64852;48.092;-1.640;2023-07-31T09:11:54;19.90;99.90
76120;DHT22;64852;48.092;-1.640;2023-07-31T09:14:20;19.90;99.90
76120;DHT22;64852;48.092;-1.640;2023-07-31T09:16:53;19.90;99.90
76120;DHT22;64852;48.092;-1.640;2023-07-31T09:19:24;19.90;99.90
76120;DHT22;64852;48.092;-1.640;2023-07-31T09:21:50;19.90;99.90
76120;DHT22;64852;48.092;-1.640;2023-07-31T09:24:28;19.90;99.90
76120;DHT22;64852;48.092;-1.640;2023-07-31T09:26:54;20.00;99.90
76120;DHT22;64852;48.092;-1.640;2023-07-31T09:29:21;20.00;99.90
76120;DHT22;64852;48.092;-1.640;2023-07-31T09:31:46;19.90;99.90
76120;DHT22;64852;48.092;-1.640;2023-07-31T09:34:12;19.90;99.90
76120;DHT22;64852;48.092;-1.640;2023-07-31T09:36:45;20.00;99.90
76120;DHT22;64852;48.092;-1.640;2023-07-31T09:39:11;20.10;99.90
76120;DHT22;64852;48.092;-1.640;2023-07-31T09:41:38;20.20;99.90
76120;DHT22;64852;48.092;-1.640;2023-07-31T09:44:04;20.40;99.90
76120;DHT22;64852;48.092;-1.640;2023-07-31T09:46:30;20.60;99.90
76120;DHT22;64852;48.092;-1.640;2023-07-31T09:49:08;20.80;99.90
76120;DHT22;64852;48.092;-1.640;2023-07-31T09:51:37;21.00;99.90
76120;DHT22;64852;48.092;-1.640;2023-07-31T09:54:08;20.90;99.90
76120;DHT22;64852;48.092;-1.640;2023-07-31T09:56:34;21.10;99.90
76120;DHT22;64852;48.092;-1.640;2023-07-31T09:59:00;21.20;99.90
76120;DHT22;64852;48.092;-1.640;2023-07-31T10:01:26;21.20;99.90
76120;DHT22;64852;48.092;-1.640;2023-07-31T10:03:51;21.20;99.90
76120;DHT22;64852;48.092;-1.640;2023-07-31T10:06:17;21.10;99.90
76120;DHT22;64852;48.092;-1.640;2023-07-31T10:08:44;21.20;99.90
76120;DHT22;64852;48.092;-1.640;2023-07-31T10:11:11;21.00;99.90
76120;DHT22;64852;48.092;-1.640;2023-07-31T10:13:36;21.00;99.90
76120;DHT22;64852;48.092;-1.640;2023-07-31T10:16:02;21.00;99.90
76120;DHT22;64852;48.092;-1.640;2023-07-31T10:18:28;20.90;99.90
76120;DHT22;64852;48.092;-1.640;2023-07-31T10:20:54;20.80;99.90
76120;DHT22;64852;48.092;-1.640;2023-07-31T10:23:20;20.70;99.90
76120;DHT22;64852;48.092;-1.640;2023-07-31T10:25:45;20.60;99.90
76120;DHT22;64852;48.092;-1.640;2023-07-31T10:28:12;20.60;99.90
76120;DHT22;64852;48.092;-1.640;2023-07-31T10:30:38;20.50;99.90
76120;DHT22;64852;48.092;-1.640;2023-07-31T10:33:04;20.50;99.90
76120;DHT22;64852;48.092;-1.640;2023-07-31T10:35:30;20.50;99.90
76120;DHT22;64852;48.092;-1.640;2023-07-31T10:37:56;20.50;99.90
76120;DHT22;64852;48.092;-1.640;2023-07-31T10:40:34;20.50;99.90
76120;DHT22;64852;48.092;-1.640;2023-07-31T10:42:59;20.40;99.90
76120;DHT22;64852;48.092;-1.640;2023-07-31T10:45:34;20.50;99.90
76120;DHT22;64852;48.092;-1.640;2023-07-31T10:48:06;20.40;99.90
76120;DHT22;64852;48.092;-1.640;2023-07-31T10:50:36;20.30;99.90
76120;DHT22;64852;48.092;-1.640;2023-07-31T10:53:02;20.30;99.90
76120;DHT22;64852;48.092;-1.640;2023-07-31T10:55:41;20.40;99.90
76120;DHT22;64852;48.092;-1.640;2023-07-31T10:58:08;20.50;99.90
76120;DHT22;64852;48.092;-1.640;2023-07-31T11:00:36;20.40;99.90
76120;DHT22;64852;48.092;-1.640;2023-07-31T11:03:03;20.50;99.90
76120;DHT22;64852;48.092;-1.640;2023-07-31T11:06:12;20.60;99.90
76120;DHT22;64852;48.092;-1.640;2023-07-31T11:08:22;20.80;99.90
76120;DHT22;64852;48.092;-1.640;2023-07-31T11:10:49;20.90;99.90
76120;DHT22;64852;48.092;-1.640;2023-07-31T11:13:14;20.90;99.90
76120;DHT22;64852;48.092;-1.640;2023-07-31T11:15:40;20.90;99.90
76120;DHT22;64852;48.092;-1.640;2023-07-31T11:18:05;20.90;99.90
76120;DHT22;64852;48.092;-1.640;2023-07-31T11:20:33;21.10;99.90
76120;DHT22;64852;48.092;-1.640;2023-07-31T11:23:03;21.20;99.90
76120;DHT22;64852;48.092;-1.640;2023-07-31T11:25:32;21.10;99.90
76120;DHT22;64852;48.092;-1.640;2023-07-31T11:28:03;21.10;99.90
76120;DHT22;64852;48.092;-1.640;2023-07-31T11:30:29;21.20;99.90
76120;DHT22;64852;48.092;-1.640;2023-07-31T11:32:55;21.20;99.90
76120;DHT22;64852;48.092;-1.640;2023-07-31T11:35:20;21.20;99.90
76120;DHT22;64852;48.092;-1.640;2023-07-31T11:37:46;21.30;99.90
76120;DHT22;64852;48.092;-1.640;2023-07-31T11:40:12;21.10;99.90
76120;DHT22;64852;48.092;-1.640;2023-07-31T11:42:37;21.10;99.90
76120;DHT22;64852;48.092;-1.640;2023-07-31T11:45:06;21.10;99.90
76120;DHT22;64852;48.092;-1.640;2023-07-31T11:47:32;21.10;99.90
76120;DHT22;64852;48.092;-1.640;2023-07-31T11:50:00;21.00;99.90
76120;DHT22;64852;48.092;-1.640;2023-07-31T11:52:26;21.10;99.90
76120;DHT22;64852;48.092;-1.640;2023-07-31T11:54:52;21.10;99.90
76120;DHT22;64852;48.092;-1.640;2023-07-31T11:57:18;21.10;99.90
76120;DHT22;64852;48.092;-1.640;2023-07-31T11:59:45;21.10;99.90
76120;DHT22;64852;48.092;-1.640;2023-07-31T12:02:10;21.10;99.90
76120;DHT22;64852;48.092;-1.640;2023-07-31T12:04:36;21.20;99.90
76120;DHT22;64852;48.092;-1.640;2023-07-31T12:07:01;21.20;99.90
76120;DHT22;64852;48.092;-1.640;2023-07-31T12:09:27;21.20;99.90
76120;DHT22;64852;48.092;-1.640;2023-07-31T12:11:53;21.20;99.90
76120;DHT22;64852;48.092;-1.640;2023-07-31T12:14:22;21.30;99.90
76120;DHT22;64852;48.092;-1.640;2023-07-31T12:16:52;21.40;99.90
76120;DHT22;64852;48.092;-1.640;2023-07-31T12:19:18;21.60;99.90
76120;DHT22;64852;48.092;-1.640;2023-07-31T12:21:44;21.80;99.90
76120;DHT22;64852;48.092;-1.640;2023-07-31T12:24:10;21.90;99.90
76120;DHT22;64852;48.092;-1.640;2023-07-31T12:26:35;21.80;99.90
76120;DHT22;64852;48.092;-1.640;2023-07-31T12:29:01;21.90;99.90
76120;DHT22;64852;48.092;-1.640;2023-07-31T12:31:27;22.00;99.90
76120;DHT22;64852;48.092;-1.640;2023-07-31T12:33:53;21.90;99.90
76120;DHT22;64852;48.092;-1.640;2023-07-31T12:36:20;21.80;99.90
76120;DHT22;64852;48.092;-1.640;2023-07-31T12:38:46;21.70;99.90
76120;DHT22;64852;48.092;-1.640;2023-07-31T12:41:11;21.70;99.90
76120;DHT22;64852;48.092;-1.640;2023-07-31T12:43:38;21.60;99.90
76120;DHT22;64852;48.092;-1.640;2023-07-31T12:46:04;21.60;99.90
76120;DHT22;64852;48.092;-1.640;2023-07-31T12:48:29;21.60;99.90
76120;DHT22;64852;48.092;-1.640;2023-07-31T12:50:55;21.60;99.90
76120;DHT22;64852;48.092;-1.640;2023-07-31T12:53:21;21.40;99.90
76120;DHT22;64852;48.092;-1.640;2023-07-31T12:55:46;21.40;99.90
76120;DHT22;64852;48.092;-1.640;2023-07-31T12:58:12;21.60;99.90
76120;DHT22;64852;48.092;-1.640;2023-07-31T13:00:37;21.50;99.90
76120;DHT22;64852;48.092;-1.640;2023-07-31T13:03:03;21.40;99.90
76120;DHT22;64852;48.092;-1.640;2023-07-31T13:05:29;21.40;99.90
76120;DHT22;64852;48.092;-1.640;2023-07-31T13:07:54;21.40;99.90
76120;DHT22;64852;48.092;-1.640;2023-07-31T13:10:20;21.40;99.90
76120;DHT22;64852;48.092;-1.640;2023-07-31T13:12:46;21.40;99.90
76120;DHT22;64852;48.092;-1.640;2023-07-31T13:15:11;21.40;99.90
76120;DHT22;64852;48.092;-1.640;2023-07-31T13:17:37;21.40;99.90
76120;DHT22;64852;48.092;-1.640;2023-07-31T13:20:03;21.50;99.90
76120;DHT22;64852;48.092;-1.640;2023-07-31T13:22:28;21.40;99.90
76120;DHT22;64852;48.092;-1.640;2023-07-31T13:24:54;21.30;99.90
76120;DHT22;64852;48.092;-1.640;2023-07-31T13:27:20;21.30;99.90
76120;DHT22;64852;48.092;-1.640;2023-07-31T13:29:49;21.30;99.90
76120;DHT22;64852;48.092;-1.640;2023-07-31T13:32:15;21.20;99.90
76120;DHT22;64852;48.092;-1.640;2023-07-31T13:34:41;21.20;99.90
76120;DHT22;64852;48.092;-1.640;2023-07-31T13:37:07;21.20;99.90
76120;DHT22;64852;48.092;-1.640;2023-07-31T13:39:32;21.10;99.90
76120;DHT22;64852;48.092;-1.640;2023-07-31T13:42:04;20.90;99.90
76120;DHT22;64852;48.092;-1.640;2023-07-31T13:44:32;21.00;99.90
76120;DHT22;64852;48.092;-1.640;2023-07-31T13:46:57;20.80;99.90
76120;DHT22;64852;48.092;-1.640;2023-07-31T13:49:23;20.10;99.90
76120;DHT22;64852;48.092;-1.640;2023-07-31T13:51:48;20.60;99.90
76120;DHT22;64852;48.092;-1.640;2023-07-31T13:54:14;20.60;99.90
76120;DHT22;64852;48.092;-1.640;2023-07-31T13:56:41;20.60;99.90
76120;DHT22;64852;48.092;-1.640;2023-07-31T13:59:06;20.60;99.90
76120;DHT22;64852;48.092;-1.640;2023-07-31T14:01:32;20.60;99.90
76120;DHT22;64852;48.092;-1.640;2023-07-31T14:03:57;20.60;99.90
76120;DHT22;64852;48.092;-1.640;2023-07-31T14:06:23;20.40;99.90
76120;DHT22;64852;48.092;-1.640;2023-07-31T14:08:48;20.40;99.90
76120;DHT22;64852;48.092;-1.640;2023-07-31T14:11:14;20.30;99.90
76120;DHT22;64852;48.092;-1.640;2023-07-31T14:13:39;20.20;99.90
76120;DHT22;64852;48.092;-1.640;2023-07-31T14:16:05;20.10;99.90
76120;DHT22;64852;48.092;-1.640;2023-07-31T14:18:31;20.00;99.90
76120;DHT22;64852;48.092;-1.640;2023-07-31T14:20:56;20.00;99.90
76120;DHT22;64852;48.092;-1.640;2023-07-31T14:23:22;19.90;99.90
76120;DHT22;64852;48.092;-1.640;2023-07-31T14:25:47;19.80;99.90
76120;DHT22;64852;48.092;-1.640;2023-07-31T14:28:13;19.80;99.90
76120;DHT22;64852;48.092;-1.640;2023-07-31T14:30:39;19.70;99.90
76120;DHT22;64852;48.092;-1.640;2023-07-31T14:33:04;19.70;99.90
76120;DHT22;64852;48.092;-1.640;2023-07-31T14:35:30;19.60;99.90
76120;DHT22;64852;48.092;-1.640;2023-07-31T14:37:55;19.70;99.90
76120;DHT22;64852;48.092;-1.640;2023-07-31T14:40:21;19.60;99.90
76120;DHT22;64852;48.092;-1.640;2023-07-31T14:42:46;19.60;99.90
76120;DHT22;64852;48.092;-1.640;2023-07-31T14:45:12;19.60;99.90
76120;DHT22;64852;48.092;-1.640;2023-07-31T14:47:37;19.50;99.90
76120;DHT22;64852;48.092;-1.640;2023-07-31T14:50:03;19.60;99.90
76120;DHT22;64852;48.092;-1.640;2023-07-31T14:52:29;19.60;99.90
76120;DHT22;64852;48.092;-1.640;2023-07-31T14:54:54;19.60;99.90
76120;DHT22;64852;48.092;-1.640;2023-07-31T14:57:20;19.70;99.90
76120;DHT22;64852;48.092;-1.640;2023-07-31T14:59:46;19.70;99.90
76120;DHT22;64852;48.092;-1.640;2023-07-31T15:02:11;19.60;99.90
76120;DHT22;64852;48.092;-1.640;2023-07-31T15:04:37;19.60;99.90
76120;DHT22;64852;48.092;-1.640;2023-07-31T15:07:02;19.60;99.90
76120;DHT22;64852;48.092;-1.640;2023-07-31T15:09:28;19.70;99.90
76120;DHT22;64852;48.092;-1.640;2023-07-31T15:11:54;19.70;99.90